KOGA/OGA METAR and TAF weather

Enter ICAO airport designator
Station Type Date Time Source
KOGA METAR 2019/08/22 04:55 UTC NOAA

KOGA 220455Z AUTO 08006KT 10SM CLR 19/19 A3011 RMK AO2 T01930188


Station Type Date Time Source
KOGA Decoded METAR 2019/08/22 04:55 UTC NOAA

Station name not available
Aug 22, 2019 - 12:55 AM EDT / 2019.08.22 0455 UTC
Wind: from the E (080 degrees) at 7 MPH (6 KT):0
Visibility: 10 mile(s):0
Sky conditions: clear
Temperature: 66.7 F (19.3 C)
Dew Point: 65.8 F (18.8 C)
Relative Humidity: 96%
Pressure (altimeter): 30.11 in. Hg (1019 hPa)
ob: KOGA 220455Z AUTO 08006KT 10SM CLR 19/19 A3011 RMK AO2 T01930188
cycle: 5

Station Type Date Time Source
KOGA TAF UTC NOAA

Error!

Example: see airport list